sensor_id;sensor_type;location;lat;lon;timestamp;pressure;altitude;pressure_sealevel;temperature;humidity
54910;BME280;63189;51.240;9.964;2023-01-16T00:01:04;96325.59;;;2.81;93.28
54910;BME280;63189;51.240;9.964;2023-01-16T00:03:29;96327.25;;;2.84;93.70
54910;BME280;63189;51.240;9.964;2023-01-16T00:05:54;96333.19;;;2.86;93.51
54910;BME280;63189;51.240;9.964;2023-01-16T00:08:20;96332.28;;;2.87;93.63
54910;BME280;63189;51.240;9.964;2023-01-16T00:10:45;96321.91;;;2.90;93.83
54910;BME280;63189;51.240;9.964;2023-01-16T00:13:12;96325.38;;;2.89;93.04
54910;BME280;63189;51.240;9.964;2023-01-16T00:15:37;96327.09;;;2.88;93.63
54910;BME280;63189;51.240;9.964;2023-01-16T00:18:03;96322.88;;;2.86;93.10
54910;BME280;63189;51.240;9.964;2023-01-16T00:20:29;96314.28;;;2.87;93.04
54910;BME280;63189;51.240;9.964;2023-01-16T00:22:54;96298.19;;;2.79;93.43
54910;BME280;63189;51.240;9.964;2023-01-16T00:25:20;96306.66;;;2.84;93.21
54910;BME280;63189;51.240;9.964;2023-01-16T00:27:45;96289.59;;;2.80;92.92
54910;BME280;63189;51.240;9.964;2023-01-16T00:30:11;96293.69;;;2.87;93.10
54910;BME280;63189;51.240;9.964;2023-01-16T00:32:36;96279.22;;;2.83;92.66
54910;BME280;63189;51.240;9.964;2023-01-16T00:35:02;96291.72;;;2.97;93.11
54910;BME280;63189;51.240;9.964;2023-01-16T00:37:27;96286.44;;;3.01;93.00
54910;BME280;63189;51.240;9.964;2023-01-16T00:39:53;96299.34;;;3.00;92.56
54910;BME280;63189;51.240;9.964;2023-01-16T00:42:18;96284.00;;;2.97;92.35
54910;BME280;63189;51.240;9.964;2023-01-16T00:44:44;96273.75;;;2.95;91.94
54910;BME280;63189;51.240;9.964;2023-01-16T00:47:09;96277.13;;;2.97;92.26
54910;BME280;63189;51.240;9.964;2023-01-16T00:49:35;96269.47;;;2.94;92.32
54910;BME280;63189;51.240;9.964;2023-01-16T00:52:00;96269.28;;;3.00;92.35
54910;BME280;63189;51.240;9.964;2023-01-16T00:54:25;96261.66;;;2.97;93.51
54910;BME280;63189;51.240;9.964;2023-01-16T00:56:51;96253.25;;;2.90;92.87
54910;BME280;63189;51.240;9.964;2023-01-16T00:59:16;96268.41;;;3.01;93.79
54910;BME280;63189;51.240;9.964;2023-01-16T01:01:41;96268.44;;;3.00;94.05
54910;BME280;63189;51.240;9.964;2023-01-16T01:04:07;96259.09;;;2.97;94.54
54910;BME280;63189;51.240;9.964;2023-01-16T01:06:32;96265.84;;;3.01;94.90
54910;BME280;63189;51.240;9.964;2023-01-16T01:08:58;96266.84;;;2.96;96.22
54910;BME280;63189;51.240;9.964;2023-01-16T01:11:23;96249.03;;;2.88;96.30
54910;BME280;63189;51.240;9.964;2023-01-16T01:13:49;96246.38;;;2.91;96.75
54910;BME280;63189;51.240;9.964;2023-01-16T01:16:14;96248.03;;;2.94;96.56
54910;BME280;63189;51.240;9.964;2023-01-16T01:18:40;96250.63;;;2.94;96.52
54910;BME280;63189;51.240;9.964;2023-01-16T01:21:06;96232.75;;;2.87;97.02
54910;BME280;63189;51.240;9.964;2023-01-16T01:23:31;96236.94;;;2.92;97.32
54910;BME280;63189;51.240;9.964;2023-01-16T01:25:57;96223.22;;;2.91;97.67
54910;BME280;63189;51.240;9.964;2023-01-16T01:28:23;96232.66;;;2.90;97.72
54910;BME280;63189;51.240;9.964;2023-01-16T01:30:48;96218.06;;;2.91;98.21
54910;BME280;63189;51.240;9.964;2023-01-16T01:33:13;96213.00;;;2.88;98.26
54910;BME280;63189;51.240;9.964;2023-01-16T01:35:39;96213.91;;;2.87;98.71
54910;BME280;63189;51.240;9.964;2023-01-16T01:38:04;96218.16;;;2.88;98.80
54910;BME280;63189;51.240;9.964;2023-01-16T01:40:31;96205.28;;;2.88;98.65
54910;BME280;63189;51.240;9.964;2023-01-16T01:42:57;96198.47;;;2.87;99.49
54910;BME280;63189;51.240;9.964;2023-01-16T01:45:28;96200.16;;;2.88;100.00
54910;BME280;63189;51.240;9.964;2023-01-16T01:50:41;96190.03;;;2.82;100.00
54910;BME280;63189;51.240;9.964;2023-01-16T01:53:18;96177.34;;;2.76;100.00
54910;BME280;63189;51.240;9.964;2023-01-16T01:55:46;96178.28;;;2.73;100.00
54910;BME280;63189;51.240;9.964;2023-01-16T01:58:14;96182.47;;;2.76;100.00
54910;BME280;63189;51.240;9.964;2023-01-16T02:00:46;96171.44;;;2.72;100.00
54910;BME280;63189;51.240;9.964;2023-01-16T02:03:27;96157.72;;;2.72;100.00
54910;BME280;63189;51.240;9.964;2023-01-16T02:05:57;96139.19;;;2.60;100.00
54910;BME280;63189;51.240;9.964;2023-01-16T02:08:27;96146.63;;;2.70;100.00
54910;BME280;63189;51.240;9.964;2023-01-16T02:11:06;96136.47;;;2.65;100.00
54910;BME280;63189;51.240;9.964;2023-01-16T02:13:33;96139.13;;;2.62;100.00
54910;BME280;63189;51.240;9.964;2023-01-16T02:15:58;96128.91;;;2.59;100.00
54910;BME280;63189;51.240;9.964;2023-01-16T02:18:43;96121.06;;;2.64;100.00
54910;BME280;63189;51.240;9.964;2023-01-16T02:21:39;96132.25;;;2.63;100.00
54910;BME280;63189;51.240;9.964;2023-01-16T02:27:46;96121.88;;;2.66;100.00
54910;BME280;63189;51.240;9.964;2023-01-16T02:33:04;96102.97;;;2.67;100.00
54910;BME280;63189;51.240;9.964;2023-01-16T02:41:29;96077.97;;;2.70;100.00
54910;BME280;63189;51.240;9.964;2023-01-16T02:43:59;96083.13;;;2.72;100.00
54910;BME280;63189;51.240;9.964;2023-01-16T02:54:37;96070.25;;;2.72;100.00
54910;BME280;63189;51.240;9.964;2023-01-16T02:57:17;96059.13;;;2.70;100.00
54910;BME280;63189;51.240;9.964;2023-01-16T02:59:43;96046.31;;;2.68;100.00
54910;BME280;63189;51.240;9.964;2023-01-16T03:02:09;96041.94;;;2.72;100.00
54910;BME280;63189;51.240;9.964;2023-01-16T03:04:43;96026.56;;;2.69;100.00
54910;BME280;63189;51.240;9.964;2023-01-16T03:13:01;96005.19;;;2.67;100.00
54910;BME280;63189;51.240;9.964;2023-01-16T03:18:19;96007.59;;;2.73;100.00
54910;BME280;63189;51.240;9.964;2023-01-16T03:23:31;95989.66;;;2.70;100.00
54910;BME280;63189;51.240;9.964;2023-01-16T03:26:07;96002.34;;;2.76;100.00
54910;BME280;63189;51.240;9.964;2023-01-16T03:33:52;95992.94;;;2.75;100.00
54910;BME280;63189;51.240;9.964;2023-01-16T03:36:34;95975.03;;;2.72;100.00
54910;BME280;63189;51.240;9.964;2023-01-16T03:39:06;95981.75;;;2.76;100.00
54910;BME280;63189;51.240;9.964;2023-01-16T03:41:34;95982.56;;;2.78;100.00
54910;BME280;63189;51.240;9.964;2023-01-16T03:44:06;95968.28;;;2.68;100.00
54910;BME280;63189;51.240;9.964;2023-01-16T03:46:54;95979.97;;;2.78;100.00
54910;BME280;63189;51.240;9.964;2023-01-16T03:49:25;95970.69;;;2.74;100.00
54910;BME280;63189;51.240;9.964;2023-01-16T03:51:55;95971.53;;;2.74;100.00
54910;BME280;63189;51.240;9.964;2023-01-16T03:54:34;95954.53;;;2.69;100.00
54910;BME280;63189;51.240;9.964;2023-01-16T03:57:16;95958.56;;;2.77;100.00
54910;BME280;63189;51.240;9.964;2023-01-16T03:59:44;95947.41;;;2.77;100.00
54910;BME280;63189;51.240;9.964;2023-01-16T04:02:30;95930.59;;;2.67;100.00
54910;BME280;63189;51.240;9.964;2023-01-16T04:05:19;95945.63;;;2.79;99.84
54910;BME280;63189;51.240;9.964;2023-01-16T04:07:50;95937.19;;;2.75;100.00
54910;BME280;63189;51.240;9.964;2023-01-16T04:10:37;95928.63;;;2.75;100.00
54910;BME280;63189;51.240;9.964;2023-01-16T04:13:06;95924.44;;;2.71;100.00
54910;BME280;63189;51.240;9.964;2023-01-16T04:15:35;95918.44;;;2.72;100.00
54910;BME280;63189;51.240;9.964;2023-01-16T04:18:03;95913.28;;;2.72;100.00
54910;BME280;63189;51.240;9.964;2023-01-16T04:20:29;95891.06;;;2.69;100.00
54910;BME280;63189;51.240;9.964;2023-01-16T04:22:55;95900.44;;;2.72;100.00
54910;BME280;63189;51.240;9.964;2023-01-16T04:25:21;95899.53;;;2.73;100.00
54910;BME280;63189;51.240;9.964;2023-01-16T04:27:46;95886.81;;;2.68;100.00
54910;BME280;63189;51.240;9.964;2023-01-16T04:30:12;95889.53;;;2.64;100.00
54910;BME280;63189;51.240;9.964;2023-01-16T04:32:38;95877.66;;;2.59;100.00
54910;BME280;63189;51.240;9.964;2023-01-16T04:35:04;95887.75;;;2.66;100.00
54910;BME280;63189;51.240;9.964;2023-01-16T04:37:30;95892.00;;;2.67;100.00
54910;BME280;63189;51.240;9.964;2023-01-16T04:39:55;95881.03;;;2.62;100.00
54910;BME280;63189;51.240;9.964;2023-01-16T04:42:21;95875.13;;;2.58;100.00
54910;BME280;63189;51.240;9.964;2023-01-16T04:44:46;95861.47;;;2.56;100.00
54910;BME280;63189;51.240;9.964;2023-01-16T04:47:11;95858.97;;;2.54;100.00
54910;BME280;63189;51.240;9.964;2023-01-16T04:49:37;95871.72;;;2.57;100.00
54910;BME280;63189;51.240;9.964;2023-01-16T04:52:03;95871.59;;;2.62;100.00
54910;BME280;63189;51.240;9.964;2023-01-16T04:54:29;95859.50;;;2.64;100.00
54910;BME280;63189;51.240;9.964;2023-01-16T04:56:54;95850.94;;;2.64;100.00
54910;BME280;63189;51.240;9.964;2023-01-16T04:59:20;95858.56;;;2.67;100.00
54910;BME280;63189;51.240;9.964;2023-01-16T05:01:46;95851.63;;;2.69;100.00
54910;BME280;63189;51.240;9.964;2023-01-16T05:04:13;95843.81;;;2.72;100.00
54910;BME280;63189;51.240;9.964;2023-01-16T05:06:39;95842.16;;;2.69;100.00
54910;BME280;63189;51.240;9.964;2023-01-16T05:09:05;95827.69;;;2.67;100.00
54910;BME280;63189;51.240;9.964;2023-01-16T05:11:31;95823.59;;;2.61;100.00
54910;BME280;63189;51.240;9.964;2023-01-16T05:13:57;95820.19;;;2.60;100.00
54910;BME280;63189;51.240;9.964;2023-01-16T05:16:23;95827.78;;;2.64;100.00
54910;BME280;63189;51.240;9.964;2023-01-16T05:18:48;95823.31;;;2.69;100.00
54910;BME280;63189;51.240;9.964;2023-01-16T05:21:13;95821.59;;;2.69;100.00
54910;BME280;63189;51.240;9.964;2023-01-16T05:23:39;95808.88;;;2.65;100.00
54910;BME280;63189;51.240;9.964;2023-01-16T05:26:05;95800.09;;;2.70;100.00
54910;BME280;63189;51.240;9.964;2023-01-16T05:28:31;95796.81;;;2.67;100.00
54910;BME280;63189;51.240;9.964;2023-01-16T05:30:57;95794.25;;;2.67;100.00
54910;BME280;63189;51.240;9.964;2023-01-16T05:33:22;95783.09;;;2.66;100.00
54910;BME280;63189;51.240;9.964;2023-01-16T05:35:48;95767.72;;;2.65;100.00
54910;BME280;63189;51.240;9.964;2023-01-16T05:38:14;95755.75;;;2.64;100.00
54910;BME280;63189;51.240;9.964;2023-01-16T05:40:40;95769.28;;;2.69;100.00
54910;BME280;63189;51.240;9.964;2023-01-16T05:43:05;95755.75;;;2.64;100.00
54910;BME280;63189;51.240;9.964;2023-01-16T05:45:31;95747.16;;;2.65;99.25
54910;BME280;63189;51.240;9.964;2023-01-16T05:47:57;95751.41;;;2.66;99.51
54910;BME280;63189;51.240;9.964;2023-01-16T05:50:22;95748.94;;;2.63;99.13
54910;BME280;63189;51.240;9.964;2023-01-16T05:52:48;95733.03;;;2.51;98.53
54910;BME280;63189;51.240;9.964;2023-01-16T05:55:13;95730.22;;;2.57;99.24
54910;BME280;63189;51.240;9.964;2023-01-16T05:57:39;95725.09;;;2.57;99.32
54910;BME280;63189;51.240;9.964;2023-01-16T06:00:04;95731.97;;;2.57;99.13
54910;BME280;63189;51.240;9.964;2023-01-16T06:02:31;95721.69;;;2.57;98.71
54910;BME280;63189;51.240;9.964;2023-01-16T06:04:56;95708.69;;;2.60;99.37
54910;BME280;63189;51.240;9.964;2023-01-16T06:07:21;95719.06;;;2.58;98.71
54910;BME280;63189;51.240;9.964;2023-01-16T06:09:47;95720.06;;;2.54;99.13
54910;BME280;63189;51.240;9.964;2023-01-16T06:12:14;95714.81;;;2.57;98.59
54910;BME280;63189;51.240;9.964;2023-01-16T06:14:40;95708.88;;;2.55;99.03
54910;BME280;63189;51.240;9.964;2023-01-16T06:17:05;95694.97;;;2.61;98.70
54910;BME280;63189;51.240;9.964;2023-01-16T06:19:31;95695.25;;;2.53;98.53
54910;BME280;63189;51.240;9.964;2023-01-16T06:21:56;95695.97;;;2.57;98.70
54910;BME280;63189;51.240;9.964;2023-01-16T06:24:21;95687.53;;;2.53;98.88
54910;BME280;63189;51.240;9.964;2023-01-16T06:26:47;95694.41;;;2.53;98.30
54910;BME280;63189;51.240;9.964;2023-01-16T06:29:12;95691.06;;;2.51;98.06
54910;BME280;63189;51.240;9.964;2023-01-16T06:31:37;95690.88;;;2.55;98.01
54910;BME280;63189;51.240;9.964;2023-01-16T06:34:03;95685.72;;;2.55;97.75
54910;BME280;63189;51.240;9.964;2023-01-16T06:36:28;95700.25;;;2.56;98.20
54910;BME280;63189;51.240;9.964;2023-01-16T06:38:53;95666.00;;;2.56;97.75
54910;BME280;63189;51.240;9.964;2023-01-16T06:41:19;95667.06;;;2.50;98.42
54910;BME280;63189;51.240;9.964;2023-01-16T06:43:44;95664.31;;;2.55;98.75
54910;BME280;63189;51.240;9.964;2023-01-16T06:46:09;95672.94;;;2.54;99.59
54910;BME280;63189;51.240;9.964;2023-01-16T06:48:35;95646.81;;;2.41;99.91
54910;BME280;63189;51.240;9.964;2023-01-16T06:51:03;95654.34;;;2.46;100.00
54910;BME280;63189;51.240;9.964;2023-01-16T06:53:29;95644.25;;;2.40;100.00
54910;BME280;63189;51.240;9.964;2023-01-16T06:55:54;95633.97;;;2.40;100.00
54910;BME280;63189;51.240;9.964;2023-01-16T06:58:19;95638.59;;;2.31;100.00
54910;BME280;63189;51.240;9.964;2023-01-16T07:00:45;95636.66;;;2.37;100.00
54910;BME280;63189;51.240;9.964;2023-01-16T07:03:15;95636.72;;;2.35;100.00
54910;BME280;63189;51.240;9.964;2023-01-16T07:05:41;95619.63;;;2.34;100.00
54910;BME280;63189;51.240;9.964;2023-01-16T07:08:06;95619.63;;;2.34;100.00
54910;BME280;63189;51.240;9.964;2023-01-16T07:10:31;95615.25;;;2.36;100.00
54910;BME280;63189;51.240;9.964;2023-01-16T07:12:57;95612.97;;;2.28;100.00
54910;BME280;63189;51.240;9.964;2023-01-16T07:15:22;95598.53;;;2.24;100.00
54910;BME280;63189;51.240;9.964;2023-01-16T07:18:12;95609.34;;;2.34;100.00
54910;BME280;63189;51.240;9.964;2023-01-16T07:21:00;95585.81;;;2.21;100.00
54910;BME280;63189;51.240;9.964;2023-01-16T07:23:48;95585.56;;;2.27;100.00
54910;BME280;63189;51.240;9.964;2023-01-16T07:26:15;95589.28;;;2.20;100.00
54910;BME280;63189;51.240;9.964;2023-01-16T07:28:46;95589.16;;;2.23;100.00
54910;BME280;63189;51.240;9.964;2023-01-16T07:31:12;95575.06;;;2.10;100.00
54910;BME280;63189;51.240;9.964;2023-01-16T07:33:38;95574.84;;;2.16;100.00
54910;BME280;63189;51.240;9.964;2023-01-16T07:36:03;95579.13;;;2.16;100.00
54910;BME280;63189;51.240;9.964;2023-01-16T07:38:29;95587.44;;;2.24;100.00
54910;BME280;63189;51.240;9.964;2023-01-16T07:40:54;95562.75;;;2.18;100.00
54910;BME280;63189;51.240;9.964;2023-01-16T07:43:19;95563.56;;;2.20;100.00
54910;BME280;63189;51.240;9.964;2023-01-16T07:45:45;95556.84;;;2.16;100.00
54910;BME280;63189;51.240;9.964;2023-01-16T07:48:17;95564.34;;;2.22;100.00
54910;BME280;63189;51.240;9.964;2023-01-16T07:50:49;95559.25;;;2.21;100.00
54910;BME280;63189;51.240;9.964;2023-01-16T07:53:14;95547.53;;;2.14;100.00
54910;BME280;63189;51.240;9.964;2023-01-16T07:55:39;95545.16;;;2.08;100.00
54910;BME280;63189;51.240;9.964;2023-01-16T07:58:05;95545.06;;;2.11;100.00
54910;BME280;63189;51.240;9.964;2023-01-16T08:00:30;95547.72;;;2.08;100.00
54910;BME280;63189;51.240;9.964;2023-01-16T08:02:55;95546.75;;;2.12;100.00
54910;BME280;63189;51.240;9.964;2023-01-16T08:05:21;95535.56;;;2.13;100.00
54910;BME280;63189;51.240;9.964;2023-01-16T08:07:46;95533.72;;;2.16;100.00
54910;BME280;63189;51.240;9.964;2023-01-16T08:10:12;95538.84;;;2.16;100.00
54910;BME280;63189;51.240;9.964;2023-01-16T08:12:38;95534.53;;;2.17;100.00
54910;BME280;63189;51.240;9.964;2023-01-16T08:15:05;95509.03;;;2.12;100.00
54910;BME280;63189;51.240;9.964;2023-01-16T08:17:30;95514.09;;;2.14;100.00
54910;BME280;63189;51.240;9.964;2023-01-16T08:19:55;95513.78;;;2.23;100.00
54910;BME280;63189;51.240;9.964;2023-01-16T08:22:21;95518.00;;;2.24;100.00
54910;BME280;63189;51.240;9.964;2023-01-16T08:24:46;95521.31;;;2.27;100.00
54910;BME280;63189;51.240;9.964;2023-01-16T08:27:11;95512.81;;;2.25;100.00
54910;BME280;63189;51.240;9.964;2023-01-16T08:29:37;95511.84;;;2.28;100.00
54910;BME280;63189;51.240;9.964;2023-01-16T08:32:02;95504.94;;;2.30;100.00
54910;BME280;63189;51.240;9.964;2023-01-16T08:34:27;95495.94;;;2.42;100.00
54910;BME280;63189;51.240;9.964;2023-01-16T08:36:52;95497.66;;;2.41;99.89
54910;BME280;63189;51.240;9.964;2023-01-16T08:39:18;95491.97;;;2.33;98.93
54910;BME280;63189;51.240;9.964;2023-01-16T08:41:43;95473.13;;;2.33;99.94
54910;BME280;63189;51.240;9.964;2023-01-16T08:44:27;95482.28;;;2.40;98.95
54910;BME280;63189;51.240;9.964;2023-01-16T08:47:14;95477.94;;;2.42;98.27
54910;BME280;63189;51.240;9.964;2023-01-16T08:50:01;95469.38;;;2.41;97.73
54910;BME280;63189;51.240;9.964;2023-01-16T08:52:45;95457.09;;;2.48;98.54
54910;BME280;63189;51.240;9.964;2023-01-16T08:55:10;95448.63;;;2.46;98.01
54910;BME280;63189;51.240;9.964;2023-01-16T08:57:36;95439.09;;;2.48;98.47
54910;BME280;63189;51.240;9.964;2023-01-16T09:00:03;95437.97;;;2.55;98.30
54910;BME280;63189;51.240;9.964;2023-01-16T09:02:29;95431.16;;;2.54;99.01
54910;BME280;63189;51.240;9.964;2023-01-16T09:04:57;95416.69;;;2.51;99.04
54910;BME280;63189;51.240;9.964;2023-01-16T09:07:22;95412.31;;;2.53;98.78
54910;BME280;63189;51.240;9.964;2023-01-16T09:09:47;95409.75;;;2.53;98.74
54910;BME280;63189;51.240;9.964;2023-01-16T09:12:13;95423.84;;;2.65;98.61
54910;BME280;63189;51.240;9.964;2023-01-16T09:14:58;95400.22;;;2.55;97.82
54910;BME280;63189;51.240;9.964;2023-01-16T09:17:25;95417.88;;;2.65;97.76
54910;BME280;63189;51.240;9.964;2023-01-16T09:19:51;95410.22;;;2.63;96.98
54910;BME280;63189;51.240;9.964;2023-01-16T09:22:16;95413.91;;;2.78;97.59
54910;BME280;63189;51.240;9.964;2023-01-16T09:24:42;95399.13;;;2.83;95.89
54910;BME280;63189;51.240;9.964;2023-01-16T09:27:08;95387.34;;;2.98;96.30
54910;BME280;63189;51.240;9.964;2023-01-16T09:29:33;95376.72;;;3.05;95.60
54910;BME280;63189;51.240;9.964;2023-01-16T09:31:59;95373.44;;;3.22;95.32
54910;BME280;63189;51.240;9.964;2023-01-16T09:34:26;95378.56;;;3.22;93.64
54910;BME280;63189;51.240;9.964;2023-01-16T09:36:51;95362.19;;;3.25;94.46
54910;BME280;63189;51.240;9.964;2023-01-16T09:39:17;95363.06;;;3.44;92.81
54910;BME280;63189;51.240;9.964;2023-01-16T09:44:57;95338.28;;;3.98;90.03
54910;BME280;63189;51.240;9.964;2023-01-16T09:47:26;95346.63;;;4.56;87.81
54910;BME280;63189;51.240;9.964;2023-01-16T09:50:02;95335.16;;;4.45;86.89
54910;BME280;63189;51.240;9.964;2023-01-16T09:52:31;95325.94;;;4.75;86.16
54910;BME280;63189;51.240;9.964;2023-01-16T09:55:23;95323.34;;;4.92;83.91
54910;BME280;63189;51.240;9.964;2023-01-16T09:58:13;95313.09;;;4.74;83.70
54910;BME280;63189;51.240;9.964;2023-01-16T10:00:59;95310.91;;;4.83;85.60
54910;BME280;63189;51.240;9.964;2023-01-16T10:03:25;95301.78;;;4.76;85.35
54910;BME280;63189;51.240;9.964;2023-01-16T10:06:23;95293.06;;;4.61;83.36
54910;BME280;63189;51.240;9.964;2023-01-16T10:11:30;95278.56;;;4.24;85.03
54910;BME280;63189;51.240;9.964;2023-01-16T10:14:22;95274.59;;;4.00;84.26
54910;BME280;63189;51.240;9.964;2023-01-16T10:31:16;95218.75;;;3.82;85.98
54910;BME280;63189;51.240;9.964;2023-01-16T10:36:16;95209.06;;;3.87;86.84
54910;BME280;63189;51.240;9.964;2023-01-16T10:38:48;95205.25;;;3.76;84.70
54910;BME280;63189;51.240;9.964;2023-01-16T10:44:29;95188.44;;;3.87;85.39
54910;BME280;63189;51.240;9.964;2023-01-16T10:47:15;95175.41;;;3.90;86.46
54910;BME280;63189;51.240;9.964;2023-01-16T10:50:00;95160.53;;;3.95;84.98
54910;BME280;63189;51.240;9.964;2023-01-16T10:52:29;95158.97;;;4.10;83.91
54910;BME280;63189;51.240;9.964;2023-01-16T10:54:58;95140.53;;;4.17;85.48
54910;BME280;63189;51.240;9.964;2023-01-16T10:57:43;95132.00;;;4.15;84.92
54910;BME280;63189;51.240;9.964;2023-01-16T11:03:00;95102.78;;;3.99;83.76
54910;BME280;63189;51.240;9.964;2023-01-16T11:05:38;95085.56;;;3.99;83.70
54910;BME280;63189;51.240;9.964;2023-01-16T11:10:32;95110.66;;;4.46;85.32
54910;BME280;63189;51.240;9.964;2023-01-16T11:12:59;95097.84;;;4.45;84.03
54910;BME280;63189;51.240;9.964;2023-01-16T11:16:04;95113.47;;;4.42;82.59
54910;BME280;63189;51.240;9.964;2023-01-16T11:18:49;95099.56;;;4.28;83.12
54910;BME280;63189;51.240;9.964;2023-01-16T11:23:43;95107.91;;;4.16;83.75
54910;BME280;63189;51.240;9.964;2023-01-16T11:26:12;95094.13;;;4.00;83.39
54910;BME280;63189;51.240;9.964;2023-01-16T11:28:37;95094.97;;;4.00;84.56
54910;BME280;63189;51.240;9.964;2023-01-16T11:31:19;95090.34;;;3.90;84.28
54910;BME280;63189;51.240;9.964;2023-01-16T11:33:49;95080.47;;;3.63;84.87
54910;BME280;63189;51.240;9.964;2023-01-16T11:36:21;95064.13;;;3.47;85.22
54910;BME280;63189;51.240;9.964;2023-01-16T11:38:48;95074.03;;;3.37;87.52
54910;BME280;63189;51.240;9.964;2023-01-16T11:41:18;95068.66;;;3.25;88.93
54910;BME280;63189;51.240;9.964;2023-01-16T11:43:48;95070.44;;;3.05;90.65
54910;BME280;63189;51.240;9.964;2023-01-16T11:46:49;95059.94;;;2.91;92.17
54910;BME280;63189;51.240;9.964;2023-01-16T11:49:18;95057.84;;;2.99;93.51
54910;BME280;63189;51.240;9.964;2023-01-16T11:51:44;95049.59;;;2.93;92.23
54910;BME280;63189;51.240;9.964;2023-01-16T11:54:15;95046.88;;;2.96;92.37
54910;BME280;63189;51.240;9.964;2023-01-16T12:02:17;95022.06;;;2.95;91.51
54910;BME280;63189;51.240;9.964;2023-01-16T12:10:54;95013.78;;;2.88;90.04
54910;BME280;63189;51.240;9.964;2023-01-16T12:13:30;95021.50;;;2.88;90.75
54910;BME280;63189;51.240;9.964;2023-01-16T12:16:44;95014.19;;;2.79;90.45
54910;BME280;63189;51.240;9.964;2023-01-16T12:24:47;95008.25;;;2.59;94.12
54910;BME280;63189;51.240;9.964;2023-01-16T12:35:08;94994.66;;;2.20;99.07
54910;BME280;63189;51.240;9.964;2023-01-16T12:37:55;94984.50;;;2.17;100.00
54910;BME280;63189;51.240;9.964;2023-01-16T12:40:51;94978.59;;;2.15;100.00
54910;BME280;63189;51.240;9.964;2023-01-16T12:43:52;94973.53;;;2.13;100.00
54910;BME280;63189;51.240;9.964;2023-01-16T12:47:32;94953.72;;;1.96;100.00
54910;BME280;63189;51.240;9.964;2023-01-16T12:49:54;94956.19;;;1.99;100.00
54910;BME280;63189;51.240;9.964;2023-01-16T12:55:04;94960.91;;;1.90;100.00
54910;BME280;63189;51.240;9.964;2023-01-16T12:57:41;94940.47;;;1.87;100.00
54910;BME280;63189;51.240;9.964;2023-01-16T13:02:46;94933.38;;;1.73;100.00
54910;BME280;63189;51.240;9.964;2023-01-16T13:05:17;94934.06;;;1.77;100.00
54910;BME280;63189;51.240;9.964;2023-01-16T13:07:51;94916.16;;;1.75;100.00
54910;BME280;63189;51.240;9.964;2023-01-16T13:10:23;94929.16;;;1.72;100.00
54910;BME280;63189;51.240;9.964;2023-01-16T13:13:15;94914.28;;;1.60;100.00
54910;BME280;63189;51.240;9.964;2023-01-16T13:15:56;94908.19;;;1.62;100.00
54910;BME280;63189;51.240;9.964;2023-01-16T13:18:26;94913.97;;;1.67;100.00
54910;BME280;63189;51.240;9.964;2023-01-16T13:20:56;94916.72;;;1.63;100.00
54910;BME280;63189;51.240;9.964;2023-01-16T13:23:32;94898.81;;;1.61;100.00
54910;BME280;63189;51.240;9.964;2023-01-16T13:26:03;94903.13;;;1.61;100.00
54910;BME280;63189;51.240;9.964;2023-01-16T13:28:50;94904.78;;;1.62;100.00
54910;BME280;63189;51.240;9.964;2023-01-16T13:33:48;94876.19;;;1.51;100.00
54910;BME280;63189;51.240;9.964;2023-01-16T13:36:37;94884.50;;;1.56;100.00
54910;BME280;63189;51.240;9.964;2023-01-16T13:42:01;94860.63;;;1.54;100.00
54910;BME280;63189;51.240;9.964;2023-01-16T13:44:35;94851.25;;;1.53;100.00
54910;BME280;63189;51.240;9.964;2023-01-16T13:47:24;94840.09;;;1.54;100.00
54910;BME280;63189;51.240;9.964;2023-01-16T13:49:56;94846.63;;;1.61;100.00
54910;BME280;63189;51.240;9.964;2023-01-16T13:52:27;94832.72;;;1.65;100.00
54910;BME280;63189;51.240;9.964;2023-01-16T13:54:57;94837.09;;;1.63;100.00
54910;BME280;63189;51.240;9.964;2023-01-16T13:57:24;94833.38;;;1.70;100.00
54910;BME280;63189;51.240;9.964;2023-01-16T13:59:55;94817.06;;;1.71;100.00
54910;BME280;63189;51.240;9.964;2023-01-16T14:02:25;94820.09;;;1.79;100.00
54910;BME280;63189;51.240;9.964;2023-01-16T14:10:44;94792.88;;;1.75;100.00
54910;BME280;63189;51.240;9.964;2023-01-16T14:15:58;94783.09;;;1.83;100.00
54910;BME280;63189;51.240;9.964;2023-01-16T14:24:07;94783.56;;;1.91;100.00
54910;BME280;63189;51.240;9.964;2023-01-16T14:26:43;94766.63;;;1.87;100.00
54910;BME280;63189;51.240;9.964;2023-01-16T14:29:14;94766.19;;;1.96;100.00
54910;BME280;63189;51.240;9.964;2023-01-16T14:31:42;94754.41;;;1.92;100.00
54910;BME280;63189;51.240;9.964;2023-01-16T14:34:17;94758.34;;;1.99;100.00
54910;BME280;63189;51.240;9.964;2023-01-16T14:36:48;94750.25;;;1.90;100.00
54910;BME280;63189;51.240;9.964;2023-01-16T14:39:27;94752.31;;;2.00;100.00
54910;BME280;63189;51.240;9.964;2023-01-16T14:41:56;94740.28;;;2.01;100.00
54910;BME280;63189;51.240;9.964;2023-01-16T14:48:05;94718.97;;;1.99;100.00
54910;BME280;63189;51.240;9.964;2023-01-16T14:54:10;94712.41;;;2.11;100.00
54910;BME280;63189;51.240;9.964;2023-01-16T14:57:13;94707.25;;;2.11;100.00
54910;BME280;63189;51.240;9.964;2023-01-16T14:59:51;94690.31;;;2.07;100.00
54910;BME280;63189;51.240;9.964;2023-01-16T15:02:27;94694.41;;;2.11;100.00
54910;BME280;63189;51.240;9.964;2023-01-16T15:05:04;94693.34;;;2.15;100.00
54910;BME280;63189;51.240;9.964;2023-01-16T15:07:56;94685.44;;;2.19;100.00
54910;BME280;63189;51.240;9.964;2023-01-16T15:10:29;94674.44;;;2.16;100.00
54910;BME280;63189;51.240;9.964;2023-01-16T15:13:20;94675.66;;;2.26;100.00
54910;BME280;63189;51.240;9.964;2023-01-16T15:15:58;94677.31;;;2.27;99.97
54910;BME280;63189;51.240;9.964;2023-01-16T15:18:24;94675.47;;;2.29;100.00
54910;BME280;63189;51.240;9.964;2023-01-16T15:21:15;94667.28;;;2.22;100.00
54910;BME280;63189;51.240;9.964;2023-01-16T15:24:08;94641.78;;;2.18;100.00
54910;BME280;63189;51.240;9.964;2023-01-16T15:27:02;94655.25;;;2.23;100.00
54910;BME280;63189;51.240;9.964;2023-01-16T15:29:41;94656.25;;;2.20;100.00
54910;BME280;63189;51.240;9.964;2023-01-16T15:32:14;94655.53;;;2.17;100.00
54910;BME280;63189;51.240;9.964;2023-01-16T15:34:43;94632.88;;;2.08;100.00